Time;durP1;ratioP1;P1;durP2;ratioP2;P2;SDS_P1;SDS_P2;PMS_P1;PMS_P2;Temp;Humidity;BMP_temperature;BMP_pressure;BME280_temperature;BME280_humidity;BME280_pressure;Samples;Min_cycle;Max_cycle;Signal;HPM_P1;HPM_P2
2022/05/20 00:02:02;;;;;;;9.68;3.75;;;5.70;99.90;;;;;;4902265;29;20122;-80
2022/05/20 00:04:29;;;;;;;11.60;3.65;;;5.70;99.90;;;;;;4898314;29;20048;-80
2022/05/20 00:06:56;;;;;;;10.48;3.80;;;5.70;99.90;;;;;;4894954;29;20187;-80
2022/05/20 00:09:24;;;;;;;7.07;2.70;;;5.60;99.90;;;;;;4897494;29;20063;-80
2022/05/20 00:11:53;;;;;;;9.05;4.22;;;5.60;99.90;;;;;;4895953;29;20048;-79
2022/05/20 00:14:20;;;;;;;8.68;4.15;;;5.50;99.90;;;;;;4897369;29;20091;-78
2022/05/20 00:16:48;;;;;;;8.30;3.78;;;5.50;99.90;;;;;;4877603;29;20056;-79
2022/05/20 00:19:16;;;;;;;7.72;4.05;;;5.40;99.90;;;;;;4878782;29;20055;-80
2022/05/20 00:21:43;;;;;;;9.90;3.67;;;5.40;99.90;;;;;;4879010;29;20140;-78
2022/05/20 00:24:11;;;;;;;10.25;4.10;;;5.30;99.90;;;;;;4889105;29;20049;-79
2022/05/20 00:26:38;;;;;;;8.95;4.45;;;5.30;99.90;;;;;;4883354;29;20045;-79
2022/05/20 00:29:05;;;;;;;7.38;3.40;;;5.30;99.90;;;;;;4895772;29;20116;-80
2022/05/20 00:31:33;;;;;;;11.50;3.85;;;5.30;99.90;;;;;;4895627;29;20049;-80
2022/05/20 00:34:00;;;;;;;7.43;3.05;;;5.20;99.90;;;;;;4891712;29;20056;-79
2022/05/20 00:36:29;;;;;;;19.75;3.53;;;5.20;99.90;;;;;;4876839;29;20052;-79
2022/05/20 00:38:56;;;;;;;8.52;3.47;;;5.20;99.90;;;;;;4889773;29;20076;-79
2022/05/20 00:41:23;;;;;;;8.02;3.10;;;5.20;99.90;;;;;;4878264;29;20075;-79
2022/05/20 00:43:51;;;;;;;6.55;3.05;;;5.20;99.90;;;;;;4878837;29;20089;-79
2022/05/20 00:46:21;;;;;;;5.35;3.13;;;5.20;99.90;;;;;;4895182;29;20040;-79
2022/05/20 00:48:50;;;;;;;4.60;2.92;;;5.20;99.90;;;;;;4882751;29;20048;-79
2022/05/20 00:51:23;;;;;;;4.85;2.95;;;5.20;99.90;;;;;;4888960;29;20092;-79
2022/05/20 00:53:56;;;;;;;6.10;2.92;;;5.20;99.90;;;;;;4877983;29;20060;-79
2022/05/20 00:56:28;;;;;;;4.75;3.42;;;5.20;99.90;;;;;;4888023;29;20060;-79
2022/05/20 00:58:57;;;;;;;6.93;2.97;;;5.20;99.90;;;;;;4878001;29;20091;-79
2022/05/20 01:01:24;;;;;;;7.53;3.63;;;5.20;99.90;;;;;;4891456;29;20121;-78
2022/05/20 01:03:53;;;;;;;3.83;2.85;;;5.20;99.90;;;;;;4879038;29;20565;-81
2022/05/20 01:06:20;;;;;;;6.25;3.50;;;5.20;99.90;;;;;;4878739;29;20057;-80
2022/05/20 01:08:47;;;;;;;7.90;3.42;;;5.20;99.90;;;;;;4879779;29;20052;-80
2022/05/20 01:11:16;;;;;;;10.75;4.75;;;5.20;99.90;;;;;;4879242;29;20077;-80
2022/05/20 01:13:47;;;;;;;9.65;5.38;;;5.20;99.90;;;;;;4876337;29;20056;-80
2022/05/20 01:16:16;;;;;;;6.43;4.15;;;5.10;99.90;;;;;;4892817;29;20052;-80
2022/05/20 01:18:47;;;;;;;23.52;8.40;;;5.00;99.90;;;;;;4909467;29;20049;-80
2022/05/20 01:21:15;;;;;;;19.58;6.65;;;5.00;99.90;;;;;;4888428;29;20056;-80
2022/05/20 01:23:44;;;;;;;15.07;6.35;;;5.00;99.90;;;;;;4899458;29;20139;-80
2022/05/20 01:26:11;;;;;;;12.48;5.07;;;4.90;99.90;;;;;;4891505;29;20064;-80
2022/05/20 01:28:39;;;;;;;12.23;5.40;;;4.90;99.90;;;;;;4876652;29;20083;-81
2022/05/20 01:31:10;;;;;;;14.50;5.00;;;4.80;99.90;;;;;;4877646;29;20503;-81
2022/05/20 01:33:40;;;;;;;8.90;4.60;;;4.80;99.90;;;;;;4884770;29;20151;-81
2022/05/20 01:36:10;;;;;;;12.18;5.40;;;4.80;99.90;;;;;;4882127;29;20055;-81
2022/05/20 01:38:37;;;;;;;15.32;6.10;;;4.80;99.90;;;;;;4895295;29;20510;-80
2022/05/20 01:41:08;;;;;;;10.05;5.53;;;4.80;99.90;;;;;;4894408;29;20052;-81
2022/05/20 01:43:49;;;;;;;10.88;5.40;;;4.70;99.90;;;;;;4896214;29;20379;-80
2022/05/20 01:46:33;;;;;;;18.08;6.53;;;4.70;99.90;;;;;;4890081;29;20387;-79
2022/05/20 01:49:12;;;;;;;11.18;5.20;;;4.70;99.90;;;;;;4910199;29;20049;-79
2022/05/20 01:51:45;;;;;;;10.05;5.47;;;4.70;99.90;;;;;;4886784;29;20053;-82
2022/05/20 01:54:20;;;;;;;31.38;6.13;;;4.70;99.90;;;;;;4878249;29;20057;-81
2022/05/20 01:56:53;;;;;;;12.65;4.78;;;4.70;99.90;;;;;;4895949;29;20056;-81
2022/05/20 01:59:27;;;;;;;13.18;5.25;;;4.70;99.90;;;;;;4894724;29;20057;-80
2022/05/20 02:01:59;;;;;;;10.35;4.72;;;4.70;99.90;;;;;;4887246;29;20060;-80
2022/05/20 02:04:31;;;;;;;12.50;4.87;;;4.70;99.90;;;;;;4888055;29;20076;-81
2022/05/20 02:07:04;;;;;;;11.40;4.82;;;4.80;99.90;;;;;;4894780;29;20084;-80
2022/05/20 02:09:36;;;;;;;8.48;5.18;;;4.80;99.90;;;;;;4892807;29;20148;-79
2022/05/20 02:12:06;;;;;;;11.52;5.85;;;4.80;99.90;;;;;;4895464;29;20150;-79
2022/05/20 02:14:39;;;;;;;10.27;4.95;;;4.90;99.90;;;;;;4894923;29;20095;-79
2022/05/20 02:17:13;;;;;;;12.23;4.93;;;4.90;99.90;;;;;;4894472;29;20100;-79
2022/05/20 02:19:47;;;;;;;15.70;5.50;;;5.00;99.90;;;;;;4888067;29;20072;-79
2022/05/20 02:22:20;;;;;;;10.45;4.80;;;5.00;99.90;;;;;;4893499;29;20143;-80
2022/05/20 02:24:48;;;;;;;11.77;4.80;;;5.00;99.90;;;;;;4901110;29;20045;-78
2022/05/20 02:27:20;;;;;;;17.58;5.28;;;5.10;99.90;;;;;;4893457;29;20529;-78
2022/05/20 02:29:51;;;;;;;17.27;4.55;;;5.10;99.90;;;;;;4893729;29;20108;-78
2022/05/20 02:32:23;;;;;;;9.40;4.50;;;5.20;99.90;;;;;;4889611;29;20068;-78
2022/05/20 02:34:52;;;;;;;8.27;3.88;;;5.20;99.90;;;;;;4907208;29;20056;-79
2022/05/20 02:37:23;;;;;;;12.10;4.22;;;5.30;99.90;;;;;;4895666;29;20053;-79
2022/05/20 02:39:50;;;;;;;8.23;4.30;;;5.40;99.90;;;;;;4885088;29;20053;-79
2022/05/20 02:42:19;;;;;;;9.65;3.80;;;5.50;99.90;;;;;;4875959;29;20041;-78
2022/05/20 02:44:47;;;;;;;8.50;4.13;;;5.60;99.90;;;;;;4890576;29;20051;-79
2022/05/20 02:47:15;;;;;;;13.43;4.55;;;5.70;99.90;;;;;;4894557;29;20067;-79
2022/05/20 02:49:42;;;;;;;13.25;4.50;;;5.70;99.90;;;;;;4879169;29;20148;-79
2022/05/20 02:52:09;;;;;;;13.00;4.30;;;5.80;99.90;;;;;;4899274;29;20409;-80
2022/05/20 02:54:37;;;;;;;7.72;3.55;;;5.80;99.90;;;;;;4906919;29;20057;-79
2022/05/20 02:57:05;;;;;;;7.28;3.13;;;5.90;99.90;;;;;;4889305;29;20164;-79
2022/05/20 03:05:04;;;;;;;6.60;2.85;;;6.20;99.90;;;;;;4896015;29;20087;-79
2022/05/20 03:07:31;;;;;;;14.00;7.10;;;6.20;99.90;;;;;;4897314;29;20147;-79
2022/05/20 03:10:00;;;;;;;7.70;3.80;;;6.40;99.90;;;;;;4879571;29;20100;-78
2022/05/20 03:12:28;;;;;;;11.48;4.20;;;6.40;99.90;;;;;;4878612;29;20053;-79
2022/05/20 03:14:57;;;;;;;18.77;4.18;;;6.50;99.90;;;;;;4865130;29;20044;-79
2022/05/20 03:17:24;;;;;;;6.88;2.88;;;6.60;99.90;;;;;;4897140;29;20424;-79
2022/05/20 03:19:51;;;;;;;8.25;2.95;;;6.60;99.90;;;;;;4891025;29;20056;-78
2022/05/20 03:22:18;;;;;;;8.25;2.92;;;6.70;99.90;;;;;;4884396;29;20073;-78
2022/05/20 03:24:45;;;;;;;5.60;2.20;;;6.80;99.90;;;;;;4890908;29;20518;-79
2022/05/20 03:27:13;;;;;;;5.40;1.90;;;6.80;99.90;;;;;;4896991;29;20108;-79
2022/05/20 03:29:40;;;;;;;3.20;1.73;;;6.90;99.90;;;;;;4881604;29;20049;-79
2022/05/20 03:32:10;;;;;;;4.93;2.08;;;7.00;99.90;;;;;;4881551;29;20080;-79
2022/05/20 03:34:38;;;;;;;3.88;1.80;;;7.00;99.90;;;;;;4892465;29;20072;-79
2022/05/20 03:37:07;;;;;;;4.45;2.40;;;7.10;99.90;;;;;;4897639;29;20056;-80
2022/05/20 03:39:35;;;;;;;3.92;1.90;;;7.10;99.90;;;;;;4909600;29;20512;-81
2022/05/20 03:42:03;;;;;;;4.90;1.90;;;7.10;99.90;;;;;;4906494;29;20156;-80
2022/05/20 03:44:30;;;;;;;5.55;2.28;;;7.10;99.90;;;;;;4879610;29;20109;-78
2022/05/20 03:46:58;;;;;;;2.00;1.70;;;7.10;99.90;;;;;;4902091;29;20051;-82
2022/05/20 03:49:29;;;;;;;3.22;1.77;;;7.10;99.90;;;;;;4913351;29;20047;-81
2022/05/20 03:51:57;;;;;;;2.15;1.58;;;7.10;99.90;;;;;;4895600;29;20500;-79
2022/05/20 03:54:31;;;;;;;2.60;1.40;;;7.20;99.90;;;;;;4908528;29;20044;-79
2022/05/20 03:56:59;;;;;;;3.55;1.48;;;7.20;99.90;;;;;;4874496;29;20438;-78
2022/05/20 03:59:27;;;;;;;1.40;1.17;;;7.30;99.90;;;;;;4895921;29;20049;-78
2022/05/20 04:01:57;;;;;;;3.65;1.80;;;7.40;99.90;;;;;;4881539;29;20061;-78
2022/05/20 04:04:29;;;;;;;6.00;1.83;;;7.40;99.90;;;;;;4895262;29;20079;-78
2022/05/20 04:06:56;;;;;;;3.30;1.90;;;7.40;99.90;;;;;;4895717;29;20139;-79
2022/05/20 04:09:24;;;;;;;3.03;1.60;;;7.50;99.90;;;;;;4893158;29;20088;-79
2022/05/20 04:11:57;;;;;;;1.70;1.48;;;7.60;99.90;;;;;;4907795;29;20055;-77
2022/05/20 04:14:26;;;;;;;2.17;1.25;;;7.60;99.90;;;;;;4900458;29;20430;-77
2022/05/20 04:16:57;;;;;;;6.55;2.47;;;7.70;99.90;;;;;;4893504;29;20508;-76
2022/05/20 04:19:24;;;;;;;1.55;1.33;;;7.70;99.90;;;;;;4897737;29;20131;-78
2022/05/20 04:21:54;;;;;;;1.30;1.20;;;7.80;99.90;;;;;;4896502;29;20502;-77
2022/05/20 04:24:22;;;;;;;4.63;1.20;;;7.90;99.90;;;;;;4889051;29;20066;-78
2022/05/20 04:26:49;;;;;;;1.45;1.08;;;8.00;99.90;;;;;;4893313;29;20485;-76
2022/05/20 04:29:16;;;;;;;2.42;1.05;;;8.10;99.90;;;;;;4896854;29;20060;-76
2022/05/20 04:31:46;;;;;;;2.70;1.20;;;8.10;99.90;;;;;;4902257;29;20067;-77
2022/05/20 04:34:13;;;;;;;3.45;1.30;;;8.20;99.90;;;;;;4908097;29;20060;-77
2022/05/20 04:36:41;;;;;;;2.33;1.38;;;8.30;99.90;;;;;;4914269;29;20147;-78
2022/05/20 04:39:29;;;;;;;1.90;1.33;;;8.40;99.90;;;;;;4912380;29;20088;-78
2022/05/20 04:47:34;;;;;;;2.03;1.23;;;8.90;99.90;;;;;;4896265;29;20071;-79
2022/05/20 04:50:01;;;;;;;4.38;1.40;;;9.10;99.90;;;;;;4880521;29;20105;-74
2022/05/20 04:52:33;;;;;;;3.00;1.05;;;9.20;98.30;;;;;;4880555;29;20100;-78
2022/05/20 04:55:01;;;;;;;1.48;0.88;;;9.10;99.00;;;;;;4896742;29;20060;-75
2022/05/20 04:57:31;;;;;;;2.60;1.15;;;9.20;98.70;;;;;;4900599;29;20142;-82
2022/05/20 05:00:01;;;;;;;3.35;1.70;;;9.30;98.40;;;;;;4905649;29;20053;-82
2022/05/20 05:02:30;;;;;;;1.77;1.42;;;9.30;99.30;;;;;;4900127;29;20550;-80
2022/05/20 05:04:58;;;;;;;3.70;1.50;;;9.40;99.90;;;;;;4887151;29;20053;-75
2022/05/20 05:07:25;;;;;;;3.05;1.25;;;9.50;99.90;;;;;;4894668;29;20071;-79
2022/05/20 05:09:53;;;;;;;3.28;1.35;;;9.70;99.90;;;;;;4893961;29;20517;-77
2022/05/20 05:12:23;;;;;;;3.13;1.30;;;9.80;99.90;;;;;;4894374;29;20080;-77
2022/05/20 05:14:52;;;;;;;2.22;1.02;;;9.90;99.00;;;;;;4896364;29;20080;-77
2022/05/20 05:18:09;;;;;;;2.80;1.40;;;10.00;96.30;;;;;;4896160;29;20053;-74
2022/05/20 05:20:12;;;;;;;1.23;1.13;;;10.00;94.10;;;;;;4878521;29;20053;-75
2022/05/20 05:22:39;;;;;;;2.33;1.58;;;10.00;92.40;;;;;;4877403;29;20061;-74
2022/05/20 05:25:08;;;;;;;4.22;1.65;;;10.10;92.30;;;;;;4892322;29;20139;-74
2022/05/20 05:27:37;;;;;;;2.42;1.17;;;10.30;92.90;;;;;;4877214;29;20083;-75
2022/05/20 05:30:05;;;;;;;4.30;1.23;;;10.70;94.40;;;;;;4895182;29;20498;-75
2022/05/20 05:32:32;;;;;;;3.05;1.27;;;11.10;90.20;;;;;;4906090;29;20048;-76
2022/05/20 05:35:00;;;;;;;1.30;1.15;;;11.60;85.20;;;;;;4902788;29;20067;-76
2022/05/20 05:37:27;;;;;;;2.63;1.30;;;12.00;79.20;;;;;;4912615;29;20089;-76
2022/05/20 05:39:54;;;;;;;1.25;1.15;;;12.30;76.80;;;;;;4915270;29;20052;-75
2022/05/20 05:42:21;;;;;;;4.40;1.10;;;12.40;74.00;;;;;;4905492;29;20072;-76
2022/05/20 05:44:52;;;;;;;2.78;0.93;;;12.70;73.50;;;;;;4909601;29;20040;-76
2022/05/20 05:47:20;;;;;;;1.67;0.80;;;12.90;72.10;;;;;;4911686;29;20047;-76
2022/05/20 05:49:48;;;;;;;1.92;1.08;;;13.00;69.80;;;;;;4911175;29;20140;-76
2022/05/20 05:52:15;;;;;;;4.55;1.17;;;13.30;70.00;;;;;;4911087;29;20052;-75
2022/05/20 05:54:43;;;;;;;1.60;1.25;;;13.70;71.00;;;;;;4911002;29;20067;-77
2022/05/20 05:57:11;;;;;;;3.75;1.10;;;14.00;66.80;;;;;;4912879;29;20090;-75
2022/05/20 05:59:38;;;;;;;2.05;0.90;;;14.00;64.80;;;;;;4897270;29;20143;-76
2022/05/20 06:02:08;;;;;;;1.75;1.17;;;14.10;65.40;;;;;;4881872;29;20052;-76
2022/05/20 06:04:41;;;;;;;3.17;1.10;;;14.20;64.20;;;;;;4894696;29;20084;-76
2022/05/20 06:07:09;;;;;;;2.60;1.23;;;14.30;65.10;;;;;;4893917;29;20148;-75
2022/05/20 06:09:36;;;;;;;1.10;0.80;;;14.50;62.90;;;;;;4896275;29;20559;-74
2022/05/20 06:12:04;;;;;;;1.45;1.05;;;14.70;59.70;;;;;;4894254;29;20068;-78
2022/05/20 06:14:31;;;;;;;1.10;1.00;;;15.10;59.30;;;;;;4895715;29;20052;-79
2022/05/20 06:16:59;;;;;;;1.63;0.85;;;15.30;58.30;;;;;;4896456;29;20501;-79
2022/05/20 06:19:29;;;;;;;1.25;0.77;;;15.60;57.30;;;;;;4878820;29;20067;-78
2022/05/20 06:21:56;;;;;;;1.10;1.02;;;15.90;57.20;;;;;;4896042;29;20061;-80
2022/05/20 06:24:24;;;;;;;1.00;0.70;;;16.10;57.90;;;;;;4895394;29;20052;-78
2022/05/20 06:26:54;;;;;;;2.50;1.60;;;16.10;54.60;;;;;;4896580;29;20063;-78
2022/05/20 06:29:22;;;;;;;1.77;0.90;;;16.30;55.10;;;;;;4904139;29;20055;-78
2022/05/20 06:31:49;;;;;;;1.17;1.00;;;16.50;54.00;;;;;;4900864;29;20049;-79
2022/05/20 06:34:16;;;;;;;0.80;0.80;;;16.70;53.50;;;;;;4918865;29;20509;-77
2022/05/20 06:42:15;;;;;;;1.67;1.58;;;18.00;53.50;;;;;;4908596;29;20072;-78
2022/05/20 06:44:45;;;;;;;1.83;1.00;;;18.40;51.20;;;;;;4904349;29;20076;-76
2022/05/20 06:47:13;;;;;;;1.40;1.30;;;18.70;49.80;;;;;;4907194;29;20096;-77
2022/05/20 06:49:40;;;;;;;2.67;1.10;;;18.80;51.40;;;;;;4907380;29;20320;-78
2022/05/20 06:52:09;;;;;;;1.95;1.02;;;19.00;49.60;;;;;;4906718;29;20131;-77
2022/05/20 06:54:36;;;;;;;1.25;1.15;;;19.10;47.70;;;;;;4908472;29;20421;-77
2022/05/20 06:57:04;;;;;;;1.20;1.10;;;19.20;47.30;;;;;;4908114;29;20048;-79
2022/05/20 06:59:31;;;;;;;5.32;1.00;;;19.30;49.50;;;;;;4899430;29;20052;-77
2022/05/20 07:02:00;;;;;;;1.20;1.00;;;19.60;50.00;;;;;;4898241;29;20057;-76
2022/05/20 07:04:30;;;;;;;2.05;1.15;;;19.90;49.40;;;;;;4898233;29;20074;-76
2022/05/20 07:07:01;;;;;;;3.63;1.50;;;20.30;49.80;;;;;;4881783;29;20155;-77
2022/05/20 07:09:30;;;;;;;2.83;1.83;;;20.70;47.80;;;;;;4891454;29;20049;-78
2022/05/20 07:11:58;;;;;;;1.20;1.10;;;20.90;46.60;;;;;;4895751;29;20088;-77
2022/05/20 07:14:28;;;;;;;2.42;1.40;;;21.00;47.00;;;;;;4895081;29;20049;-78
2022/05/20 07:16:55;;;;;;;2.67;1.60;;;21.40;44.80;;;;;;4892894;29;20049;-78
2022/05/20 07:19:22;;;;;;;2.25;1.00;;;21.60;46.00;;;;;;4894168;29;20104;-78
2022/05/20 07:21:50;;;;;;;1.92;1.20;;;21.70;44.30;;;;;;4895090;29;20111;-77
2022/05/20 07:24:20;;;;;;;2.13;1.23;;;21.80;44.70;;;;;;4890702;29;20055;-77
2022/05/20 07:26:48;;;;;;;3.35;1.10;;;22.10;44.00;;;;;;4895444;29;20084;-78
2022/05/20 07:29:16;;;;;;;1.60;1.15;;;22.30;43.00;;;;;;4891896;29;20060;-77
2022/05/20 07:31:43;;;;;;;3.17;1.10;;;22.20;42.90;;;;;;4894322;29;20053;-77
2022/05/20 07:34:16;;;;;;;0.93;0.90;;;22.50;43.20;;;;;;4893071;29;20506;-76
2022/05/20 07:36:43;;;;;;;1.10;1.00;;;22.50;41.50;;;;;;4894557;29;20064;-77
2022/05/20 07:39:10;;;;;;;1.40;1.30;;;22.90;41.20;;;;;;4895998;29;20048;-76
2022/05/20 07:41:38;;;;;;;1.35;1.25;;;23.20;40.60;;;;;;4894608;29;20040;-77
2022/05/20 07:44:07;;;;;;;1.13;1.02;;;23.70;41.00;;;;;;4893718;29;20085;-77
2022/05/20 07:46:34;;;;;;;3.42;1.30;;;23.70;40.30;;;;;;4896350;29;20056;-77
2022/05/20 07:49:01;;;;;;;3.78;1.20;;;23.60;39.90;;;;;;4894058;29;20429;-78
2022/05/20 07:51:30;;;;;;;1.40;1.27;;;23.50;39.80;;;;;;4877373;29;20048;-78
2022/05/20 07:54:01;;;;;;;1.20;1.10;;;23.30;39.90;;;;;;4895401;29;20135;-77
2022/05/20 07:56:33;;;;;;;3.33;1.52;;;23.00;40.70;;;;;;4894023;29;20068;-78
2022/05/20 07:59:09;;;;;;;1.23;1.15;;;23.00;42.70;;;;;;4878339;29;20044;-76
2022/05/20 08:01:40;;;;;;;1.45;1.35;;;23.20;42.20;;;;;;4894724;29;20145;-76
2022/05/20 08:07:01;;;;;;;1.65;1.55;;;23.50;40.10;;;;;;4894382;29;20048;-80
2022/05/20 08:09:29;;;;;;;2.58;1.73;;;23.00;39.70;;;;;;4895200;29;20052;-80
2022/05/20 08:11:58;;;;;;;3.00;1.35;;;23.10;40.80;;;;;;4892963;29;20214;-79
2022/05/20 08:14:28;;;;;;;1.50;1.40;;;23.40;41.10;;;;;;4893582;29;20108;-79
2022/05/20 08:16:57;;;;;;;5.90;1.75;;;23.50;39.90;;;;;;4894497;29;20052;-78
2022/05/20 08:19:24;;;;;;;4.20;1.35;;;23.40;40.20;;;;;;4876483;29;20144;-78
2022/05/20 08:21:52;;;;;;;3.20;1.65;;;23.60;39.10;;;;;;4894891;29;20080;-81
2022/05/20 08:24:22;;;;;;;1.45;1.35;;;23.60;40.30;;;;;;4893545;29;20055;-82
2022/05/20 08:26:50;;;;;;;1.98;1.50;;;24.20;41.50;;;;;;4894333;29;20142;-85
2022/05/20 08:29:17;;;;;;;3.08;1.20;;;24.50;39.20;;;;;;4909236;29;20085;-79
2022/05/20 08:31:46;;;;;;;1.02;1.02;;;24.20;38.30;;;;;;4894117;29;20521;-78
2022/05/20 08:34:14;;;;;;;1.25;0.95;;;24.10;39.50;;;;;;4893609;29;20045;-76
2022/05/20 08:36:42;;;;;;;1.40;1.30;;;24.30;38.40;;;;;;4894468;29;20056;-76
2022/05/20 08:39:12;;;;;;;1.63;1.30;;;25.10;38.20;;;;;;4893442;29;20059;-77
2022/05/20 08:41:42;;;;;;;1.40;1.20;;;25.60;38.80;;;;;;4893755;29;20048;-76
2022/05/20 08:44:12;;;;;;;1.63;1.45;;;25.90;39.00;;;;;;4893990;29;20084;-77
2022/05/20 08:46:41;;;;;;;2.92;1.40;;;26.00;37.50;;;;;;4891948;29;20068;-77
2022/05/20 08:49:13;;;;;;;1.55;1.23;;;25.80;37.50;;;;;;4894229;29;20063;-77
2022/05/20 08:51:41;;;;;;;;;;;25.70;38.00;;;;;;4894274;29;20127;-77
2022/05/20 08:54:12;;;;;;;1.05;0.95;;;25.60;36.70;;;;;;4892443;29;20003;-77
2022/05/20 08:56:39;;;;;;;4.80;1.38;;;25.20;37.00;;;;;;4877428;29;20062;-76
2022/05/20 08:59:10;;;;;;;1.33;1.25;;;25.10;38.00;;;;;;4891937;29;20403;-77
2022/05/20 09:01:42;;;;;;;2.15;1.20;;;25.50;37.20;;;;;;4893502;29;20764;-76
2022/05/20 09:04:12;;;;;;;3.05;1.42;;;25.70;37.20;;;;;;4893695;29;20179;-77
2022/05/20 09:06:41;;;;;;;2.67;1.10;;;25.90;37.20;;;;;;4892892;29;20520;-78
2022/05/20 09:09:11;;;;;;;1.27;1.00;;;26.00;36.70;;;;;;4891974;29;20059;-77
2022/05/20 09:11:39;;;;;;;4.20;3.15;;;26.30;35.80;;;;;;4892736;29;20036;-79
2022/05/20 09:17:09;;;;;;;5.38;3.03;;;27.00;35.80;;;;;;4892966;29;20052;-78
2022/05/20 09:19:39;;;;;;;15.75;5.72;;;27.00;36.00;;;;;;4893404;29;20055;-79
2022/05/20 09:22:13;;;;;;;1.48;1.35;;;26.70;35.30;;;;;;4892697;29;20056;-77
2022/05/20 09:24:43;;;;;;;3.72;1.98;;;26.20;35.90;;;;;;4891782;29;20056;-77
2022/05/20 09:27:13;;;;;;;1.92;1.23;;;26.20;35.60;;;;;;4908282;29;20087;-78
2022/05/20 09:29:43;;;;;;;5.72;1.40;;;26.30;35.50;;;;;;4891692;29;20045;-77
2022/05/20 09:32:22;;;;;;;1.00;1.00;;;26.40;35.00;;;;;;4877359;29;20463;-79
2022/05/20 09:34:56;;;;;;;1.17;1.08;;;26.40;35.10;;;;;;4892372;29;20088;-80
2022/05/20 09:37:28;;;;;;;2.95;2.75;;;26.60;35.80;;;;;;4892585;29;20148;-81
2022/05/20 09:39:55;;;;;;;;;;;26.80;35.40;;;;;;4893973;29;20108;-82
2022/05/20 09:42:25;;;;;;;1.75;1.58;;;27.00;34.60;;;;;;4893224;29;19927;-77
2022/05/20 09:44:55;;;;;;;1.40;1.30;;;27.10;34.80;;;;;;4892170;29;20066;-77
2022/05/20 09:47:27;;;;;;;1.80;1.70;;;27.20;34.50;;;;;;4895116;29;20048;-77
2022/05/20 09:49:59;;;;;;;1.33;1.10;;;27.10;34.00;;;;;;4891750;29;20052;-78
2022/05/20 09:52:51;;;;;;;2.88;1.30;;;27.20;35.60;;;;;;4893290;29;20656;-78
2022/05/20 09:55:26;;;;;;;0.90;0.90;;;27.70;36.30;;;;;;4893337;29;20143;-77
2022/05/20 09:57:56;;;;;;;1.85;1.20;;;27.60;34.40;;;;;;4893473;29;20060;-77
2022/05/20 10:00:26;;;;;;;1.25;1.15;;;27.50;34.80;;;;;;4894858;29;20136;-77
2022/05/20 10:03:03;;;;;;;1.75;1.55;;;27.60;35.00;;;;;;4895311;29;20056;-78
2022/05/20 10:05:37;;;;;;;1.85;1.30;;;27.70;35.50;;;;;;4897017;29;20053;-76
2022/05/20 10:08:11;;;;;;;3.65;2.25;;;27.70;35.20;;;;;;4897467;29;20084;-76
2022/05/20 10:10:49;;;;;;;1.92;1.80;;;27.70;35.10;;;;;;4898204;29;20060;-78
2022/05/20 10:13:31;;;;;;;3.50;1.50;;;27.70;34.50;;;;;;4895961;29;20529;-76
2022/05/20 10:16:12;;;;;;;1.38;1.27;;;27.50;34.90;;;;;;4896693;29;20782;-76
2022/05/20 10:18:48;;;;;;;2.40;1.30;;;27.30;34.70;;;;;;4897902;29;20055;-76
2022/05/20 10:21:37;;;;;;;1.85;1.35;;;27.10;35.60;;;;;;4893419;29;20429;-77
2022/05/20 10:24:15;;;;;;;2.95;1.80;;;26.90;35.00;;;;;;4895707;29;20053;-77
2022/05/20 10:26:51;;;;;;;3.55;1.80;;;27.00;36.00;;;;;;4896797;29;20144;-75
2022/05/20 10:34:59;;;;;;;1.55;1.45;;;27.50;35.50;;;;;;4894303;29;20382;-79
2022/05/20 10:37:38;;;;;;;2.00;1.60;;;27.70;35.50;;;;;;4878634;29;20060;-78
2022/05/20 10:40:26;;;;;;;1.65;1.45;;;27.70;34.70;;;;;;4894357;29;20056;-78
2022/05/20 10:43:05;;;;;;;4.00;1.75;;;28.20;35.50;;;;;;4896673;29;20060;-80
2022/05/20 10:48:50;;;;;;;2.95;1.20;;;29.00;35.40;;;;;;4894507;29;20509;-78
2022/05/20 10:51:46;;;;;;;1.05;1.00;;;29.50;34.30;;;;;;4898945;29;20049;-81
2022/05/20 10:54:57;;;;;;;3.30;1.25;;;29.70;33.40;;;;;;4890447;29;20585;-78
2022/05/20 10:57:54;;;;;;;5.30;3.30;;;29.40;33.50;;;;;;4898248;29;20053;-79
2022/05/20 11:00:24;;;;;;;4.20;1.45;;;29.40;35.20;;;;;;4896409;29;20167;-79
2022/05/20 11:03:20;;;;;;;3.03;1.38;;;29.80;35.00;;;;;;4896400;29;20071;-79
2022/05/20 11:06:26;;;;;;;4.57;1.23;;;29.80;32.80;;;;;;4894370;29;20049;-79
2022/05/20 11:09:03;;;;;;;2.58;1.65;;;28.70;34.30;;;;;;4893408;29;20048;-79
2022/05/20 11:11:59;;;;;;;3.00;1.42;;;27.30;35.60;;;;;;4897097;29;20108;-78
2022/05/20 11:14:44;;;;;;;1.55;1.30;;;26.90;36.50;;;;;;4899541;29;20084;-79
2022/05/20 11:17:40;;;;;;;3.00;1.40;;;26.60;35.60;;;;;;4897484;29;20056;-80
2022/05/20 11:20:18;;;;;;;1.58;1.48;;;26.70;37.00;;;;;;4895669;29;20052;-80
2022/05/20 11:23:22;;;;;;;1.55;1.45;;;27.50;36.50;;;;;;4897940;29;20053;-78
2022/05/20 11:26:08;;;;;;;2.60;1.40;;;28.50;35.40;;;;;;4894000;29;20056;-81
2022/05/20 11:29:00;;;;;;;2.38;1.38;;;28.60;35.20;;;;;;4898411;29;20198;-81
2022/05/20 11:31:43;;;;;;;3.67;1.55;;;28.50;35.20;;;;;;4895292;29;20064;-79
2022/05/20 11:34:32;;;;;;;2.00;1.40;;;26.90;35.60;;;;;;4893495;29;20048;-80
2022/05/20 11:37:16;;;;;;;3.45;1.67;;;25.50;37.70;;;;;;4894107;29;20052;-79
2022/05/20 11:40:03;;;;;;;3.42;1.33;;;25.70;38.30;;;;;;4894800;29;20048;-82
2022/05/20 11:42:46;;;;;;;7.43;5.03;;;26.50;38.00;;;;;;4893750;29;20060;-79
2022/05/20 11:45:22;;;;;;;2.85;1.67;;;27.30;36.50;;;;;;4895186;29;20051;-79
2022/05/20 11:48:32;;;;;;;2.33;1.30;;;28.00;35.70;;;;;;4896339;29;20509;-80
2022/05/20 11:51:34;;;;;;;4.03;1.35;;;29.00;35.30;;;;;;4887300;29;20057;-79
2022/05/20 11:54:06;;;;;;;2.33;1.50;;;29.60;34.40;;;;;;4878749;29;20048;-79
2022/05/20 11:56:38;;;;;;;;;;;29.60;34.00;;;;;;4899918;29;20083;-79
2022/05/20 11:59:15;;;;;;;3.40;1.10;;;29.10;34.20;;;;;;4878757;29;20333;-78
2022/05/20 12:01:47;;;;;;;2.50;1.25;;;28.50;34.90;;;;;;4890981;29;20048;-78
2022/05/20 12:04:16;;;;;;;3.95;1.25;;;27.40;35.30;;;;;;4895587;29;20057;-83
2022/05/20 12:06:47;;;;;;;1.73;1.10;;;26.20;37.10;;;;;;4898587;29;20073;-80
2022/05/20 12:09:32;;;;;;;1.42;1.33;;;25.20;37.30;;;;;;4892957;29;20036;-78
2022/05/20 12:12:28;;;;;;;1.65;1.17;;;24.20;38.90;;;;;;4896416;29;20399;-79
2022/05/20 12:15:15;;;;;;;4.35;1.55;;;23.80;39.90;;;;;;4891673;29;20536;-77
2022/05/20 12:17:45;;;;;;;1.00;1.00;;;23.80;40.70;;;;;;4892436;29;20494;-79
2022/05/20 12:26:38;;;;;;;2.55;1.73;;;25.00;38.30;;;;;;4892516;29;20049;-79
2022/05/20 12:29:40;;;;;;;1.33;0.80;;;24.30;38.70;;;;;;4890611;29;20144;-77
2022/05/20 12:32:26;;;;;;;2.15;1.08;;;23.30;39.50;;;;;;4893380;29;20152;-79
2022/05/20 12:35:07;;;;;;;1.98;0.90;;;23.40;39.80;;;;;;4892811;29;20059;-78
2022/05/20 12:38:15;;;;;;;1.30;1.13;;;23.60;39.50;;;;;;4892765;29;20127;-79
2022/05/20 12:41:03;;;;;;;2.75;1.17;;;23.50;39.40;;;;;;4890351;29;20085;-79
2022/05/20 12:44:01;;;;;;;0.95;0.95;;;23.20;40.00;;;;;;4893005;29;20487;-79
2022/05/20 12:46:57;;;;;;;1.52;0.95;;;23.80;39.20;;;;;;4892373;29;20576;-74
2022/05/20 12:49:27;;;;;;;3.90;1.40;;;24.50;38.50;;;;;;4889898;29;20518;-78
2022/05/20 12:52:08;;;;;;;6.60;1.30;;;25.10;38.00;;;;;;4892240;29;20096;-79
2022/05/20 12:54:43;;;;;;;1.10;1.10;;;25.40;37.60;;;;;;4897525;29;20071;-80
2022/05/20 12:57:14;;;;;;;2.80;1.10;;;25.70;36.80;;;;;;4897702;29;20139;-85
2022/05/20 12:59:42;;;;;;;3.90;1.10;;;26.00;36.70;;;;;;4898521;29;20083;-83
2022/05/20 13:02:14;;;;;;;3.25;1.20;;;26.50;36.30;;;;;;4898097;29;20100;-84
2022/05/20 13:04:46;;;;;;;1.60;1.27;;;25.80;35.60;;;;;;4897314;29;20635;-79
2022/05/20 13:07:18;;;;;;;1.33;1.23;;;24.40;37.30;;;;;;4891111;29;20048;-79
2022/05/20 13:09:47;;;;;;;1.65;1.20;;;23.80;38.80;;;;;;4890183;29;20411;-80
2022/05/20 13:12:22;;;;;;;4.07;2.85;;;22.60;39.30;;;;;;4889430;29;20041;-79
2022/05/20 13:14:59;;;;;;;4.10;1.08;;;21.30;41.90;;;;;;4887625;29;20072;-80
2022/05/20 13:17:26;;;;;;;2.33;1.30;;;20.40;42.80;;;;;;4889517;29;20116;-79
2022/05/20 13:19:58;;;;;;;1.73;1.30;;;20.30;43.30;;;;;;4888983;29;20532;-79
2022/05/20 13:22:29;;;;;;;4.75;1.80;;;20.50;42.90;;;;;;4876429;29;20051;-79
2022/05/20 13:24:59;;;;;;;1.63;1.33;;;20.10;42.70;;;;;;4892267;29;20048;-79
2022/05/20 13:27:27;;;;;;;2.35;1.40;;;19.40;43.80;;;;;;4892093;29;20080;-81
2022/05/20 13:29:55;;;;;;;2.15;1.50;;;19.30;44.80;;;;;;4893505;29;20087;-80
2022/05/20 13:32:32;;;;;;;3.35;1.13;;;19.90;44.70;;;;;;4895071;29;20581;-80
2022/05/20 13:35:01;;;;;;;6.65;1.40;;;20.40;43.20;;;;;;4891379;29;20074;-81
2022/05/20 13:37:37;;;;;;;4.50;1.50;;;20.30;43.40;;;;;;4890258;29;20392;-80
2022/05/20 13:40:12;;;;;;;2.67;1.20;;;19.90;43.50;;;;;;4889391;29;20045;-79
2022/05/20 13:42:45;;;;;;;1.55;1.20;;;19.20;44.40;;;;;;4892465;29;20456;-79
2022/05/20 13:45:14;;;;;;;5.07;1.10;;;18.50;45.10;;;;;;4892079;29;20060;-78
2022/05/20 13:50:28;;;;;;;3.78;2.08;;;17.80;47.30;;;;;;4890348;29;20124;-79
2022/05/20 13:52:59;;;;;;;1.65;1.38;;;18.30;46.60;;;;;;4894724;29;20084;-79
2022/05/20 13:55:32;;;;;;;4.00;1.65;;;19.90;45.30;;;;;;4889990;29;20394;-78
2022/05/20 13:58:00;;;;;;;4.10;1.30;;;22.00;42.40;;;;;;4892226;29;20496;-80